Date,TemperatureHighF,TemperatureAvgF,TemperatureLowF,DewpointHighF,DewpointAvgF,DewpointLowF,HumidityHigh,HumidityAvg,HumidityLow,PressureMaxIn,PressureMinIn,WindSpeedMaxMPH,WindSpeedAvgMPH,GustSpeedMaxMPH,PrecipitationSumIn
2013-1-1,35.6,26.8,9.1,22.0,10.0,-5.5,63,49,38,29.66,29.42,21,5,21,0.00
2013-1-2,27.9,16.1,3.4,11.4,-0.1,-14.4,65,49,30,29.91,29.61,15,3,15,0.00
2013-1-3,22.3,7.5,-5.6,0.0,-11.6,-19.3,53,41,19,29.93,29.64,6,1,6,0.00
2013-1-4,44.1,28.6,16.2,18.6,11.7,0.0,65,50,28,29.93,29.51,18,2,18,0.19
2013-1-5,43.7,32.4,21.0,20.9,14.3,5.7,65,48,22,30.09,29.91,19,5,19,0.00
2013-1-6,52.5,35.8,22.1,26.1,21.7,12.2,74,57,30,30.02,29.74,6,1,6,0.00
2013-1-7,37.2,28.7,14.5,27.5,15.5,5.7,72,58,38,30.23,29.83,13,2,13,0.00
2013-1-8,48.9,22.1,9.1,23.8,10.8,-1.1,73,63,36,30.22,30.11,7,0,7,0.00
2013-1-9,45.1,31.9,0.0,30.2,19.9,7.1,78,61,32,30.21,29.81,27,3,27,0.00
2013-1-10,47.3,37.9,26.1,25.5,19.4,15.4,64,48,29,30.41,29.98,27,6,27,0.00
2013-1-11,38.5,31.3,24.3,32.8,22.5,15.6,84,70,49,30.39,29.92,17,2,17,0.08
2013-1-12,45.0,39.8,36.0,40.7,36.8,-38.6,93,89,81,29.99,29.91,12,2,12,0.00
2013-1-13,44.4,41.0,36.3,42.8,39.1,15.2,94,93,89,30.17,29.46,15,2,15,0.00
2013-1-14,46.4,41.4,34.0,44.0,30.7,17.0,95,68,43,30.17,29.36,21,5,21,0.01
2013-1-15,41.0,33.3,29.3,19.2,16.6,13.2,62,50,34,30.20,29.75,8,3,8,0.00
2013-1-16,33.4,30.5,28.0,26.8,23.5,16.4,86,75,56,30.08,29.34,2,0,2,0.00
2013-1-17,38.7,29.9,22.3,30.2,16.5,-2.2,87,60,32,30.01,29.38,14,2,14,0.06
2013-1-18,28.8,18.5,9.5,3.4,-6.7,-19.9,52,33,16,30.25,26.76,14,3,14,0.00
2013-1-19,49.1,35.0,23.4,22.0,13.7,2.0,50,41,24,30.09,29.60,16,5,16,0.06
2013-1-20,50.4,35.7,21.2,29.6,14.8,-4.8,65,44,16,29.87,29.37,23,6,23,0.00
2013-1-21,28.6,22.3,16.3,13.2,4.6,-2.5,66,47,27,29.91,29.32,13,2,13,0.00
2013-1-22,23.0,15.0,5.7,6.5,-8.0,-19.8,63,38,17,29.96,29.31,19,5,19,0.00
2013-1-23,18.7,5.6,-1.3,-8.4,-18.3,-26.3,49,33,18,30.05,28.93,17,3,17,0.00
2013-1-24,21.4,6.4,-4.2,-6.6,-16.3,-21.8,49,35,16,30.21,29.68,23,5,23,0.00
2013-1-25,25.2,12.3,4.5,2.2,-11.8,-18.9,59,34,18,30.25,29.91,13,3,13,0.00
2013-1-26,30.4,13.9,4.8,0.7,-6.1,-15.2,64,43,17,30.17,29.90,14,3,14,0.00
2013-1-27,36.0,18.6,7.9,-0.3,-8.2,-17.7,58,33,15,30.35,30.17,12,3,12,0.00
2013-1-28,31.5,24.4,15.6,26.9,9.8,-10.6,83,56,25,30.32,29.78,11,1,11,0.00
2013-1-29,37.8,32.3,25.9,34.8,25.9,20.0,89,77,64,29.99,29.81,14,1,14,0.27
2013-1-30,54.7,47.2,37.6,52.1,44.7,34.6,93,91,86,29.85,29.13,18,5,18,0.12
2013-1-31,52.9,39.1,24.1,50.9,27.1,6.3,95,65,31,29.48,28.72,27,7,27,0.27
2013-2-1,32.4,23.8,18.5,13.1,1.5,-12.7,61,39,21,29.99,29.48,24,6,24,0.00
2013-2-2,32.7,20.5,10.2,7.9,-0.0,-7.8,61,42,21,30.06,29.84,19,2,19,0.00
2013-2-3,36.5,23.1,15.3,10.8,5.7,-9.0,68,49,21,29.87,29.60,5,1,5,0.00
2013-2-4,29.3,20.9,13.6,12.2,4.3,-7.0,65,49,29,29.86,29.60,20,4,20,0.00
2013-2-5,37.6,23.6,16.5,14.6,2.0,-12.6,60,41,16,29.85,29.71,5,1,5,0.00
2013-2-6,37.4,27.1,17.1,22.1,7.0,-13.5,72,47,16,30.21,29.71,20,4,20,0.00
2013-2-7,34.0,20.1,12.0,-1.2,-6.8,-12.6,51,31,16,30.38,30.20,7,2,7,0.00
2013-2-8,29.5,23.9,19.4,20.8,11.0,-4.3,77,59,34,30.21,29.66,8,1,8,0.00
2013-2-9,34.3,20.4,4.5,17.9,2.3,-14.8,79,49,18,30.20,29.68,17,2,17,0.00
2013-2-10,42.4,14.3,-2.0,2.4,-7.1,-15.6,58,41,15,30.35,29.78,6,1,6,0.00
2013-2-11,42.1,33.5,16.7,34.5,23.9,0.6,88,69,42,30.10,29.16,17,4,17,0.01
2013-2-12,38.8,36.0,33.3,28.6,22.5,17.2,80,58,47,29.78,29.21,21,5,21,0.00
2013-2-13,52.0,35.5,30.4,22.5,15.7,4.9,66,46,18,29.74,29.56,10,2,10,0.00
2013-2-14,49.5,33.1,23.5,20.7,15.6,10.3,62,50,24,29.78,29.56,10,2,10,0.00
2013-2-15,50.4,39.2,31.5,24.3,19.8,14.4,74,47,26,29.85,29.70,14,3,14,0.00
2013-2-16,38.7,29.9,24.3,24.2,8.3,-5.3,77,42,21,29.85,29.68,12,3,12,0.00
2013-2-17,26.4,19.9,12.7,-0.1,-9.8,-15.6,36,26,17,29.78,29.51,27,9,27,0.02
2013-2-18,32.2,19.7,8.4,1.3,-10.4,-18.4,44,26,16,30.05,29.78,22,7,22,0.00
2013-2-19,43.0,30.2,17.2,30.3,14.7,-3.1,82,54,33,29.99,29.45,21,3,21,0.02
2013-2-20,32.9,28.2,24.6,20.0,4.9,-6.6,60,38,20,29.73,29.49,27,8,27,0.00
2013-2-21,25.7,21.1,18.1,7.4,1.8,-4.0,54,43,28,30.22,29.71,24,8,24,0.00
2013-2-22,44.4,29.3,17.8,18.7,11.8,4.6,63,48,27,30.27,30.06,10,2,10,0.00
2013-2-23,36.3,34.6,32.2,30.9,26.1,18.1,82,71,52,30.06,29.70,12,3,12,0.00
2013-2-24,41.0,34.5,32.0,35.6,25.7,16.4,88,71,44,29.82,29.60,17,3,17,0.17
2013-2-25,40.6,31.9,23.5,27.3,21.1,16.2,80,64,47,30.08,29.81,8,1,8,0.00
2013-2-26,47.5,36.0,25.0,27.0,20.9,16.8,78,56,33,30.15,29.86,11,2,11,0.00
2013-2-27,39.9,29.6,0.0,35.7,29.2,16.3,88,67,42,29.87,29.38,8,1,8,0.45
2013-2-28,50.5,38.0,34.0,38.1,31.5,27.8,92,78,53,29.44,29.39,7,1,7,0.09
2013-3-1,42.8,35.3,32.0,29.5,25.8,19.7,82,69,52,29.61,29.44,14,3,14,0.05
2013-3-2,36.7,30.5,25.2,19.9,16.8,12.9,66,57,43,29.62,29.55,14,6,14,0.00
2013-3-3,33.8,26.3,21.7,17.7,11.7,7.9,66,54,45,29.61,29.52,18,7,18,0.01
2013-3-4,34.2,28.2,25.2,17.8,14.7,11.8,66,57,43,29.75,29.34,24,8,24,0.00
2013-3-5,50.2,34.3,28.8,21.1,17.7,14.3,67,52,26,29.89,29.43,14,4,14,0.00
2013-3-6,44.1,35.7,27.9,28.4,21.2,15.1,72,56,41,29.65,29.55,15,3,15,0.00
2013-3-7,40.1,34.5,29.8,26.5,20.6,14.0,83,58,37,30.00,29.62,9,2,9,0.01
2013-3-8,51.3,29.0,0.0,31.9,25.3,15.8,84,63,42,30.14,29.93,8,0,8,0.08
2013-3-9,58.5,17.1,0.0,24.2,21.0,11.2,74,31,16,30.19,30.11,7,0,7,0.08
2013-3-10,60.4,39.5,21.9,30.5,20.9,12.5,83,52,17,30.19,30.02,14,3,14,0.00
2013-3-11,49.3,43.1,35.6,39.6,33.2,27.5,79,68,56,30.07,29.81,18,4,18,0.00
2013-3-12,52.5,47.5,38.1,51.2,43.0,29.0,96,84,70,29.84,29.25,21,5,21,0.58
2013-3-13,52.7,39.2,32.2,29.4,20.9,6.3,77,52,19,29.72,29.39,14,4,14,0.00
2013-3-14,32.5,23.2,0.0,18.6,4.3,-21.3,56,32,22,29.75,29.66,23,7,23,0.00
2013-3-15,38.8,25.7,0.0,28.0,12.3,-1.4,83,40,27,29.79,0.00,19,3,19,0.01
2013-3-16,42.8,30.2,19.8,19.9,8.5,-2.8,64,42,18,29.76,29.59,11,3,11,0.00
2013-3-17,39.6,27.9,18.3,9.5,-0.2,-10.0,53,32,15,30.18,29.44,20,5,20,0.00
2013-3-18,39.7,27.0,13.6,21.9,2.1,-9.9,78,38,15,30.29,29.86,10,2,10,0.00
2013-3-19,39.7,31.5,25.3,32.0,25.5,19.5,85,78,67,29.91,29.52,6,0,6,0.06
2013-3-20,39.9,26.8,17.4,20.3,14.1,8.3,78,61,31,29.65,29.59,11,2,11,0.02
2013-3-21,46.9,28.8,12.4,19.8,5.0,-7.0,74,42,16,29.65,29.48,12,3,12,0.11
2013-3-22,30.0,30.0,30.0,15.8,15.8,15.8,55,55,55,29.64,29.63,9,7,9,0.04
2013-3-23,42.1,35.0,31.3,17.6,14.8,11.5,55,44,30,29.73,29.33,19,8,19,0.00
2013-3-24,54.7,37.7,30.6,19.0,15.9,8.7,55,43,17,29.74,29.28,11,3,11,0.00
2013-3-25,47.3,33.0,0.0,24.4,20.4,17.6,62,45,34,29.61,29.06,8,2,8,0.00
2013-3-26,55.2,30.9,0.0,24.9,17.3,5.8,70,31,15,29.69,0.00,12,1,12,0.00
2013-3-27,57.2,23.5,0.0,25.8,18.6,8.6,59,25,21,29.78,0.00,19,3,19,0.00
2013-3-28,51.8,34.4,0.0,31.9,26.8,20.7,74,45,42,29.94,0.00,12,4,12,0.00
2013-3-29,53.6,43.7,36.9,29.4,26.3,20.6,65,51,29,29.96,29.89,17,6,17,0.00
2013-3-30,60.6,44.6,28.8,29.4,18.3,5.7,75,41,14,29.97,29.89,15,4,15,0.00
2013-3-31,57.0,41.0,0.0,38.3,22.9,13.7,87,47,20,29.96,29.54,18,3,18,0.12
2013-4-1,51.1,32.0,0.0,44.5,28.2,5.6,97,49,22,29.72,29.39,25,5,25,0.06
2013-4-2,41.0,31.5,25.5,22.2,11.9,-4.0,74,47,17,29.86,29.70,27,7,27,0.02
2013-4-3,44.1,33.3,25.3,18.2,8.7,-3.5,70,39,17,30.11,29.84,25,8,25,0.00
2013-4-4,61.0,42.3,27.1,20.7,12.9,6.2,62,34,12,30.19,29.49,12,4,14,0.00
2013-4-5,57.9,44.0,33.4,27.2,18.5,5.7,63,39,15,29.83,29.41,22,5,22,0.00
2013-4-6,55.0,38.7,28.6,23.6,3.7,-7.4,60,26,12,30.13,29.83,16,4,16,0.00
2013-4-7,62.6,28.5,0.0,38.0,26.3,6.7,72,23,14,30.00,29.67,26,4,26,0.00
2013-4-8,71.1,40.7,0.0,39.7,29.7,15.8,82,34,13,29.98,29.76,11,2,11,0.00
2013-4-9,64.6,56.5,51.6,47.6,41.0,34.7,75,57,39,29.88,29.65,21,4,21,0.01
2013-4-10,63.0,51.5,45.3,51.0,47.5,42.0,99,87,61,29.84,29.67,8,2,8,0.56
2013-4-11,45.3,40.1,32.4,44.5,27.7,9.7,98,64,26,29.98,29.72,13,3,13,0.04
2013-4-12,40.6,35.8,32.0,37.6,32.1,21.5,96,86,61,29.97,29.61,10,1,10,0.22
2013-4-13,55.6,43.2,36.7,41.5,36.0,33.7,98,77,47,29.78,29.64,15,1,15,0.01
2013-4-14,51.3,41.9,31.1,36.2,27.3,18.2,86,59,28,30.08,29.77,14,4,15,0.01
2013-4-15,67.6,45.6,27.7,33.4,26.3,20.3,83,52,19,30.21,30.06,13,2,13,0.00
2013-4-16,60.6,53.3,45.7,54.9,41.8,28.3,90,65,47,30.14,29.84,22,6,22,0.13
2013-4-17,73.6,55.3,42.8,38.9,28.9,9.4,69,43,10,30.16,29.96,14,4,14,0.00
2013-4-18,69.3,46.2,0.0,46.9,31.8,23.5,82,45,21,30.18,29.84,24,5,24,0.00
2013-4-19,71.6,52.8,0.0,61.1,51.4,31.7,94,65,63,29.85,0.00,25,6,25,0.37
2013-4-20,57.9,45.4,34.9,41.5,30.1,12.8,97,61,19,30.17,29.20,19,5,19,0.19
2013-4-21,59.5,42.4,29.8,20.0,13.3,4.1,54,34,13,30.49,29.79,14,3,14,0.00
2013-4-22,66.0,30.4,0.0,27.7,18.5,5.4,68,29,10,30.54,30.32,14,2,14,0.00
2013-4-23,58.5,37.3,0.0,37.0,29.6,21.8,81,45,41,30.37,29.97,10,1,10,0.00
2013-4-24,78.3,59.1,32.5,48.7,41.0,30.5,97,55,28,29.98,29.52,19,4,19,0.00
2013-4-25,62.8,48.4,39.6,51.8,28.5,9.3,82,50,12,30.11,29.57,19,5,19,0.05
2013-4-26,64.0,47.9,33.6,36.3,26.2,14.4,78,48,17,30.29,30.09,16,3,16,0.00
2013-4-27,72.0,51.7,33.4,32.9,23.7,7.5,78,41,10,30.29,30.10,8,2,8,0.00
2013-4-28,81.9,52.1,0.0,38.2,28.8,16.0,84,28,10,30.15,29.94,13,2,13,0.00
2013-4-29,61.5,56.2,51.3,49.2,39.4,25.1,92,55,31,30.06,30.00,13,4,13,0.02
2013-4-30,81.0,36.5,0.0,49.7,41.3,17.1,93,36,10,30.14,30.04,11,1,11,0.01
2013-5-1,85.6,28.4,0.0,44.9,35.6,11.0,57,10,10,30.29,30.14,8,1,9,0.00
2013-5-2,91.6,60.6,0.0,44.9,34.8,19.2,76,27,10,30.30,0.00,10,2,10,0.00
2013-5-3,82.6,64.6,51.6,40.7,27.1,12.1,52,28,10,30.33,29.83,10,2,10,0.00
2013-5-4,87.6,65.7,44.8,44.8,35.1,15.3,82,39,10,30.20,29.68,10,2,10,0.00
2013-5-5,84.9,63.9,45.9,43.7,30.4,10.4,83,38,10,30.13,29.66,10,2,10,0.00
2013-5-6,85.1,63.1,45.1,48.6,34.6,15.5,83,44,10,30.09,29.60,10,2,10,0.00
2013-5-7,89.2,69.7,51.1,54.6,47.4,33.9,91,52,15,30.01,29.86,8,2,8,0.00
2013-5-8,74.8,65.3,56.7,65.5,57.1,52.6,93,76,53,29.98,29.81,11,1,11,0.17
2013-5-9,81.7,63.5,52.7,58.8,52.9,42.6,99,72,26,29.83,29.70,8,1,8,0.00
2013-5-10,81.9,67.1,50.5,59.4,52.3,47.8,99,64,33,29.83,29.65,8,2,8,0.00
2013-5-11,71.4,63.2,56.5,65.8,58.0,49.4,97,83,61,29.68,29.21,11,2,11,0.39
2013-5-12,64.9,54.3,42.4,49.7,36.4,11.2,85,56,13,29.71,29.21,18,4,18,0.01
2013-5-13,55.6,45.2,35.2,34.2,26.1,20.5,77,49,28,29.93,29.71,14,4,14,0.00
2013-5-14,64.6,42.6,0.0,33.8,24.6,11.1,83,43,14,29.96,29.85,11,2,11,0.00
2013-5-15,70.9,26.7,0.0,52.7,26.9,13.6,91,32,38,29.89,0.00,17,1,17,0.04
2013-5-16,86.4,66.5,0.0,51.9,29.8,13.6,92,26,10,29.71,0.00,18,5,18,0.00
2013-5-17,78.8,61.1,47.8,41.6,35.9,19.9,70,44,12,30.06,29.40,9,2,9,0.00
2013-5-18,79.7,61.8,43.3,48.7,40.3,21.5,89,52,13,30.15,29.73,11,2,11,0.00
2013-5-19,59.9,56.8,49.1,57.1,52.9,47.3,95,87,73,30.14,29.67,11,2,11,0.09
2013-5-20,90.9,69.3,56.3,63.2,58.6,54.1,98,72,38,29.99,29.58,8,2,8,0.00
2013-5-21,94.5,73.5,60.3,67.6,62.8,59.6,98,73,36,29.79,29.62,10,2,10,0.00
2013-5-22,81.5,72.4,63.3,73.2,67.3,62.5,99,85,61,29.72,29.30,12,3,12,1.77
2013-5-23,77.9,70.0,65.7,68.2,64.9,60.9,97,84,65,29.67,29.29,10,2,10,0.19
2013-5-24,65.7,52.0,43.3,65.1,50.3,42.8,99,94,80,29.85,29.49,16,3,16,0.89
2013-5-25,46.6,44.4,43.3,44.9,42.8,39.5,98,94,84,29.84,29.75,16,4,16,0.70
2013-5-26,66.6,50.6,41.9,43.0,39.8,35.4,90,68,35,29.98,29.71,17,5,17,0.02
2013-5-27,75.9,58.4,39.7,47.9,32.2,14.5,98,47,11,30.05,29.95,14,4,14,0.00
2013-5-28,73.2,59.5,41.2,55.1,42.0,30.1,90,57,21,30.07,29.96,13,2,13,0.00
2013-5-29,80.4,62.9,57.2,69.0,60.6,55.1,99,93,63,29.97,29.73,23,2,23,0.70
2013-5-30,93.2,76.0,60.3,69.5,64.1,60.0,99,71,39,29.95,29.88,10,2,10,0.00
2013-5-31,99.0,80.2,64.8,71.0,65.2,61.9,98,65,32,29.96,29.63,8,1,8,0.00
2013-6-1,99.3,81.0,66.7,68.1,64.7,60.0,85,60,33,29.82,26.67,11,2,11,0.00
2013-6-2,89.1,76.9,67.3,70.7,67.1,62.4,94,73,51,29.68,29.22,13,2,13,0.07
2013-6-3,74.1,66.5,61.7,66.8,57.3,48.4,98,75,43,29.70,29.33,15,3,15,0.01
2013-6-4,79.0,66.5,55.2,43.4,39.0,34.7,59,37,24,29.98,29.04,15,7,15,0.00
2013-6-5,82.8,63.8,47.8,48.6,41.1,34.2,80,47,18,30.06,29.93,7,1,7,0.00
2013-6-6,73.9,64.1,53.2,55.8,49.2,45.8,88,60,38,29.99,29.87,14,2,14,0.15
2013-6-7,58.3,56.8,55.0,57.6,56.0,54.2,99,97,93,29.81,29.48,4,0,4,1.08
2013-6-8,69.3,58.3,53.4,58.6,54.8,52.8,99,89,67,29.90,29.56,8,2,8,0.21
2013-6-9,82.6,67.7,53.4,60.5,53.5,47.5,99,65,31,30.03,29.63,11,2,11,0.00
2013-6-10,65.8,61.0,54.3,63.2,58.4,53.0,99,92,78,30.03,29.41,5,0,5,0.65
2013-6-11,70.5,63.3,58.6,67.2,60.3,53.7,99,90,74,29.51,29.09,14,3,14,0.79
2013-6-12,80.8,65.5,56.5,54.3,51.9,45.8,89,64,31,29.70,29.18,16,4,16,0.00
2013-6-13,60.4,56.0,52.7,57.5,55.2,3.6,99,97,89,29.68,29.50,6,1,6,1.20
2013-6-14,81.0,64.6,53.8,61.6,55.5,51.5,99,75,39,29.72,29.53,12,2,12,0.02
2013-6-15,81.5,71.1,58.1,55.7,43.1,30.6,83,41,18,29.84,29.44,18,4,18,0.00
2013-6-16,72.0,34.7,0.0,62.9,50.6,43.9,86,39,51,29.82,29.49,11,1,11,0.00
2013-6-17,86.7,36.9,0.0,67.4,53.8,46.5,98,39,37,29.76,0.00,23,1,23,0.31
2013-6-18,71.1,33.3,0.0,60.8,50.9,46.5,99,43,53,29.81,29.74,11,1,11,0.00
2013-6-19,79.7,24.6,0.0,53.4,46.3,35.7,99,25,22,30.03,0.00,8,1,8,0.00
2013-6-20,86.7,51.3,0.0,55.7,48.5,40.3,92,36,24,30.12,0.00,8,1,8,0.00
2013-6-21,92.8,67.3,0.0,62.5,51.9,34.9,94,44,18,30.11,0.00,8,1,8,0.00
2013-6-22,89.6,75.6,64.4,65.0,61.5,57.3,89,64,39,30.06,29.04,10,2,10,0.00
2013-6-23,96.3,80.8,68.9,71.6,65.0,59.9,76,60,40,29.97,29.62,10,3,10,0.00
2013-6-24,97.0,80.7,66.6,72.1,67.1,61.9,98,67,36,29.87,29.76,14,3,14,0.26
2013-6-25,93.6,75.1,64.2,75.9,68.4,63.4,99,82,43,29.83,29.60,11,1,11,0.35
2013-6-26,88.5,75.6,70.0,70.7,68.4,64.9,98,80,49,29.66,29.59,9,1,9,0.00
2013-6-27,90.9,77.4,65.8,71.7,67.0,61.1,98,73,40,29.66,29.44,11,1,11,0.05
2013-6-28,86.5,73.5,68.0,73.4,67.3,59.9,99,83,49,29.45,29.20,14,2,14,1.89
2013-6-29,88.0,75.1,67.1,74.1,66.1,61.9,99,76,46,29.54,29.08,10,1,10,0.01
2013-6-30,85.3,73.2,65.3,73.1,66.8,62.6,97,82,53,29.76,29.32,9,1,9,0.79
2013-7-1,79.0,71.3,67.5,72.0,69.2,67.2,99,93,78,29.87,29.44,5,1,5,0.44
2013-7-2,90.3,75.8,65.8,74.1,70.6,65.6,99,85,56,29.97,29.55,11,2,11,0.01
2013-7-3,91.8,79.7,72.9,72.7,71.2,68.5,92,77,49,30.04,29.67,10,2,10,0.00
2013-7-4,96.6,82.7,71.6,74.7,71.3,68.2,96,71,44,30.06,29.92,11,2,11,0.00
2013-7-5,97.5,83.5,73.2,78.0,72.1,69.2,95,71,43,30.01,29.86,10,2,10,0.06
2013-7-6,93.7,81.7,71.6,74.1,67.9,62.5,94,66,39,29.96,29.85,11,2,11,0.00
2013-7-7,97.9,78.3,69.8,76.2,70.2,65.8,97,78,41,29.90,29.75,10,1,10,0.33
2013-7-8,91.6,78.6,71.1,77.6,68.5,62.1,99,74,41,29.86,29.77,10,2,10,0.00
2013-7-9,92.8,82.0,70.7,74.8,69.2,63.3,99,68,41,29.93,29.80,7,1,7,0.86
2013-7-10,87.8,77.0,72.1,75.4,71.8,67.9,97,84,61,29.83,29.61,14,2,14,0.46
2013-7-11,88.9,76.9,70.2,73.8,63.3,54.5,98,66,34,29.83,29.60,14,3,14,0.00
2013-7-12,90.7,75.4,64.0,64.1,60.7,58.0,84,62,38,30.02,29.83,8,2,8,0.00
2013-7-13,83.1,73.6,66.2,71.1,65.8,60.9,90,77,61,30.14,29.78,8,1,8,0.01
2013-7-14,97.3,80.8,70.5,74.6,69.8,65.8,97,72,41,30.18,29.80,8,1,8,0.00
2013-7-15,95.4,83.6,72.1,72.7,67.7,63.5,92,62,40,30.09,29.98,11,3,11,0.00
2013-7-16,99.9,83.1,69.1,71.6,66.6,62.5,87,60,31,30.08,29.98,8,2,8,0.00
2013-7-17,100.4,85.2,70.2,74.2,68.1,60.9,89,60,31,30.06,29.71,10,2,10,0.00
2013-7-18,99.0,86.2,76.8,73.6,70.6,65.0,85,62,35,29.89,29.78,14,3,14,0.00
2013-7-19,102.9,87.4,73.6,73.8,69.0,62.3,92,58,33,29.79,29.55,14,3,14,0.00
2013-7-20,92.1,77.4,0.0,68.7,64.2,58.8,79,60,42,29.69,29.55,21,2,21,0.00
2013-7-21,90.9,42.1,0.0,64.6,59.7,57.1,89,34,34,29.83,0.00,8,1,8,0.00
2013-7-22,93.4,37.6,0.0,69.5,60.9,53.7,94,31,38,29.86,0.00,8,1,8,0.06
2013-7-23,91.8,36.5,0.0,72.2,63.7,59.3,98,38,44,29.67,29.40,8,1,8,0.71
2013-7-24,78.3,35.3,0.0,68.9,58.7,47.5,97,32,42,29.87,29.44,18,2,18,0.00
2013-7-25,82.0,40.8,0.0,59.3,54.0,45.2,91,37,33,29.96,29.86,10,1,10,0.00
2013-7-26,87.1,69.5,60.1,58.8,55.1,52.2,87,63,34,29.93,29.83,8,2,8,0.00
2013-7-27,89.8,72.9,55.6,63.2,58.6,50.2,98,65,28,29.90,29.77,9,2,9,0.00
2013-7-28,75.6,69.7,66.7,69.3,65.1,60.8,98,86,73,29.83,29.76,12,2,12,0.56
2013-7-29,88.3,73.4,62.8,67.8,59.1,50.2,99,66,29,29.96,29.78,8,2,8,0.00
2013-7-30,84.9,68.7,56.1,58.3,55.1,49.0,95,65,33,30.03,29.92,9,2,9,0.00
2013-7-31,87.8,62.4,0.0,60.5,56.1,53.6,94,51,34,30.02,29.55,7,1,7,0.04
2013-8-1,84.4,60.5,0.0,67.1,60.9,56.8,93,56,39,29.87,29.35,11,2,11,0.02
2013-8-2,87.4,66.8,0.0,64.3,58.8,52.8,98,67,31,29.72,29.34,11,1,11,0.00
2013-8-3,84.2,71.2,61.7,60.5,55.6,46.5,89,61,31,29.91,29.64,13,3,13,0.00
2013-8-4,81.5,68.6,57.6,60.7,53.1,47.4,84,60,33,29.82,29.04,17,4,17,0.01
2013-8-5,84.0,68.5,55.4,54.2,46.3,35.0,87,51,19,29.91,29.56,10,4,10,0.00
2013-8-6,67.3,58.1,0.0,53.0,51.0,46.7,95,66,52,29.97,29.89,3,0,3,0.00
2013-8-7,65.5,35.4,0.0,52.1,52.1,52.1,62,34,62,29.98,29.83,1,0,2,0.00
2013-8-8,0.0,0.0,0.0,52.1,52.1,52.1,0,0,100,29.83,29.76,0,0,0,0.00
2013-8-9,0.0,0.0,0.0,52.1,52.1,52.1,0,0,100,29.78,29.01,0,0,0,0.00
2013-8-10,0.0,0.0,0.0,52.1,52.1,52.1,0,0,100,29.88,29.76,0,0,0,0.00
2013-8-11,0.0,0.0,0.0,52.1,52.1,52.1,0,0,100,29.94,29.82,0,0,0,0.00
2013-8-12,0.0,0.0,0.0,52.1,52.1,52.1,0,0,100,29.86,29.84,0,0,0,0.00
2013-8-13,0.0,0.0,0.0,52.1,52.1,52.1,0,0,100,29.63,29.61,0,0,0,0.00
2013-8-14,0.0,0.0,0.0,52.1,52.1,52.1,0,0,100,29.62,29.60,0,0,0,0.00
2013-8-15,0.0,0.0,0.0,52.1,52.1,52.1,0,0,100,29.92,29.90,0,0,0,0.00
2013-8-16,0.0,0.0,0.0,52.1,52.1,52.1,0,0,100,29.98,29.96,0,0,0,0.00
2013-8-17,0.0,0.0,0.0,52.1,52.1,52.1,0,0,100,30.10,30.08,0,0,0,0.00
2013-8-18,0.0,0.0,0.0,52.1,52.1,52.1,0,0,100,30.04,30.02,0,0,0,0.00
2013-8-19,0.0,0.0,0.0,52.1,52.1,52.1,0,0,100,29.90,29.90,0,0,0,0.00
2013-9-17,67.5,52.9,44.8,46.7,44.3,38.6,97,76,37,30.18,30.15,3,0,3,0.00
2013-9-18,79.2,54.4,41.4,52.1,46.4,41.1,99,79,34,30.16,29.96,6,1,6,0.00
2013-9-19,85.5,59.9,43.7,54.3,50.2,43.2,99,76,30,29.99,29.85,5,1,5,0.00
2013-9-20,86.9,63.5,47.7,58.6,53.3,47.4,99,74,32,29.91,29.75,9,2,9,0.00
2013-9-21,70.0,60.8,57.9,58.6,56.7,55.3,95,87,61,29.79,29.63,14,3,14,0.00
2013-9-23,48.4,46.7,44.6,41.3,40.5,39.1,82,79,75,29.90,29.88,3,1,3,0.57
2013-9-24,72.9,51.7,41.2,45.2,40.9,38.1,95,71,32,29.90,29.70,10,2,10,0.00
2013-9-25,82.4,57.4,41.7,52.0,47.1,41.5,99,73,31,29.80,29.70,6,1,6,0.00
2013-9-26,75.6,58.1,47.7,50.8,47.6,44.6,99,71,36,29.97,29.80,9,1,9,0.00
2013-9-27,63.3,54.4,43.9,52.7,48.8,43.4,99,82,60,30.11,29.96,5,1,5,0.00
2013-9-28,85.3,58.1,43.7,55.1,50.2,43.2,99,80,31,30.19,30.05,5,1,5,0.00
2013-9-29,84.0,58.9,45.1,55.4,49.2,35.6,99,76,21,30.06,29.87,7,1,7,0.00
2013-9-30,86.4,59.2,49.1,53.2,50.7,46.0,99,78,28,29.91,29.78,6,0,6,0.00
2013-10-1,83.1,60.7,45.3,58.0,52.1,44.5,99,77,40,29.84,29.70,11,1,11,0.00
2013-10-2,82.2,64.2,52.9,62.9,55.4,50.2,99,76,43,29.84,29.71,12,2,12,0.00
2013-10-3,81.9,61.4,46.8,55.1,50.8,46.0,99,72,32,29.94,29.83,9,1,9,0.00
2013-10-4,63.3,59.3,56.8,59.0,56.6,54.3,99,91,82,29.91,29.83,4,0,4,0.31
2013-10-5,65.1,59.3,55.2,57.9,54.8,51.0,97,85,68,29.93,29.86,4,0,4,0.11
2013-10-6,63.3,57.4,52.3,59.0,54.7,51.0,99,91,78,29.93,29.83,12,2,12,0.17
2013-10-7,75.9,63.4,52.9,67.3,59.2,50.6,98,86,69,29.83,29.44,18,3,18,0.76
2013-10-8,73.4,55.7,44.8,50.6,43.5,36.9,93,67,30,30.19,29.77,11,2,11,0.00
2013-10-9,74.5,51.0,38.1,46.9,42.6,37.4,99,79,28,30.29,30.15,5,0,5,0.00
2013-10-10,60.3,50.5,39.0,49.5,45.3,38.8,99,84,60,30.16,29.98,4,0,4,0.00
2013-10-11,79.0,57.7,47.7,50.7,47.8,37.0,98,74,28,29.99,29.90,5,1,5,0.00
2013-10-12,83.7,57.4,42.3,54.6,48.0,41.8,99,75,35,30.16,29.96,14,2,14,0.00
2013-10-13,77.9,60.7,52.9,50.2,48.2,44.9,81,65,34,30.24,30.12,9,2,9,0.00
2013-10-14,75.9,58.4,47.5,54.6,50.1,45.7,96,75,44,30.17,30.04,8,2,8,0.00
2013-10-15,79.2,62.3,56.1,57.2,54.8,47.0,91,77,45,30.08,29.91,7,1,7,0.00
2013-10-16,63.9,58.8,53.4,55.1,48.8,40.2,83,70,55,29.93,29.66,12,3,12,0.00
2013-10-17,82.2,63.0,56.5,56.7,52.0,46.3,95,71,30,29.70,29.41,8,1,8,0.04
2013-10-18,70.7,56.3,42.4,60.8,45.5,32.4,98,71,26,29.76,29.38,13,3,13,0.06
2013-10-19,63.3,43.3,40.1,44.5,41.1,39.8,99,93,49,29.77,29.68,6,0,7,0.00
2013-10-20,67.5,53.5,44.1,39.4,35.4,28.8,75,53,27,29.84,29.69,15,3,15,0.01
2013-10-21,73.8,54.3,40.3,43.6,39.3,36.3,93,61,28,29.91,29.71,12,2,12,0.00
2013-10-22,64.6,50.7,36.5,47.8,40.3,31.5,84,68,38,29.72,29.56,12,3,12,0.00
2013-10-23,59.0,44.1,35.1,37.8,33.9,30.8,94,69,40,29.63,29.43,9,1,9,0.00
2013-10-24,57.7,42.9,30.6,37.4,30.9,23.2,96,66,31,29.75,29.53,15,3,15,0.00
2013-10-25,56.8,41.8,34.5,36.8,32.2,28.3,89,70,36,29.98,29.75,16,3,16,0.00
2013-10-26,53.6,42.8,32.2,35.5,31.3,23.8,95,67,32,29.97,29.63,13,2,13,0.00
2013-10-27,55.9,44.6,32.0,35.5,32.2,26.4,89,63,39,29.90,29.60,17,2,17,0.00
2013-10-28,64.6,41.6,30.2,37.4,29.9,21.5,95,67,27,30.19,29.88,17,2,17,0.00
2013-10-29,58.3,36.7,26.6,27.1,21.9,16.9,82,58,23,30.29,30.15,7,1,7,0.00
2013-10-30,60.3,41.0,33.3,39.9,32.3,22.9,93,72,46,30.15,30.00,4,0,4,0.01
2013-10-31,59.9,47.6,32.0,58.5,46.4,30.5,99,95,87,30.04,29.45,17,4,17,0.17
2013-11-1,75.6,63.3,48.6,62.0,51.7,38.9,94,69,37,29.51,29.18,22,6,22,0.09
2013-11-2,59.2,47.9,37.4,49.7,41.8,34.7,99,81,57,29.65,29.42,11,1,11,0.01
2013-11-3,42.3,37.8,26.2,35.3,23.8,13.1,79,57,39,30.29,29.65,11,2,11,0.00
2013-11-4,50.9,31.5,20.8,20.2,14.8,9.4,79,53,23,30.49,30.29,9,1,9,0.00
2013-11-5,70.7,40.8,24.4,37.1,28.4,16.3,78,62,38,30.48,29.94,13,2,13,0.00
2013-11-6,66.7,52.6,43.7,45.9,41.8,36.8,83,67,45,30.27,29.75,17,4,17,0.00
2013-11-7,56.3,49.3,40.6,51.5,41.5,32.7,93,75,62,29.75,29.57,19,5,19,0.18
2013-11-8,47.7,38.6,28.0,35.0,29.5,21.8,85,71,39,29.98,29.69,24,4,24,0.01
2013-11-9,47.1,36.7,25.5,31.1,26.3,19.3,84,67,52,30.05,29.72,10,1,10,0.00
2013-11-10,54.7,44.6,39.6,37.3,32.5,27.4,82,63,43,29.82,29.56,21,4,21,0.00
2013-11-11,52.5,44.3,37.2,33.3,28.9,24.6,69,55,41,29.97,29.72,18,3,18,0.00
2013-11-12,45.1,31.9,25.5,34.2,18.9,10.2,78,59,39,30.09,29.74,17,5,17,0.00
2013-11-13,40.5,29.8,21.9,17.1,11.6,3.8,62,47,25,30.18,29.96,14,4,14,0.00
2013-11-14,57.6,36.5,26.8,22.3,18.4,14.8,66,50,21,29.96,29.86,11,2,12,0.00
2013-11-15,62.4,40.9,28.8,26.4,19.3,14.7,66,44,19,30.00,29.89,9,1,9,0.00
2013-11-16,71.6,47.7,37.4,38.0,30.9,24.6,73,54,27,30.11,29.99,7,1,7,0.00
2013-11-17,60.8,51.6,42.6,56.9,48.4,35.2,99,89,68,30.05,29.48,25,3,25,0.01
2013-11-18,68.7,56.7,42.1,58.4,40.4,27.6,94,58,28,29.57,29.27,21,6,21,0.06
2013-11-19,46.2,36.2,25.0,29.0,20.8,14.6,71,54,38,30.20,29.57,20,6,20,0.00
2013-11-20,48.0,28.8,21.6,18.4,13.0,8.2,72,54,24,30.45,30.19,8,1,8,0.00
2013-11-21,50.2,32.3,15.6,31.8,20.8,10.2,84,64,29,30.45,30.16,9,1,9,0.00
2013-11-22,48.0,42.1,38.3,44.9,38.3,29.4,98,87,64,30.16,29.68,18,1,18,0.07
2013-11-23,45.1,34.8,23.2,35.2,22.0,10.6,86,60,32,29.83,29.66,26,9,26,0.00
2013-11-24,28.6,20.4,14.7,11.6,0.2,-6.9,65,42,23,30.12,29.72,24,8,24,0.00
2013-11-25,38.5,24.2,10.9,14.0,5.4,-3.8,56,44,30,30.24,30.02,15,3,15,0.00
2013-11-26,27.9,27.8,27.7,23.4,23.3,23.2,83,83,83,30.08,30.07,0,0,0,0.00
2013-11-27,35.2,34.2,32.2,31.2,28.1,22.8,88,78,68,29.44,29.21,29,6,29,0.92
2013-11-28,34.0,24.9,16.3,22.8,9.9,2.5,74,53,31,30.26,29.44,27,7,27,0.01
2013-11-29,38.8,24.6,17.4,15.2,10.4,3.3,77,56,24,30.57,30.25,11,2,11,0.00
2013-11-30,33.6,23.3,10.4,16.7,7.7,3.1,73,52,32,30.59,30.15,15,2,15,0.00
2013-12-1,41.5,32.7,25.2,28.7,23.6,17.1,81,69,58,30.16,29.82,8,1,8,0.00
2013-12-2,43.2,34.5,27.0,31.5,27.9,21.9,84,77,62,29.82,29.69,4,0,4,0.00
2013-12-3,43.7,34.2,26.6,34.0,27.2,20.4,90,76,60,29.81,29.71,10,1,10,0.00
2013-12-4,50.0,31.1,23.4,29.9,22.5,18.4,86,71,42,29.96,29.80,4,0,4,0.00
2013-12-5,52.9,45.3,28.0,49.9,41.1,21.2,92,85,71,29.95,29.68,17,4,17,0.01
2013-12-6,51.6,39.9,32.4,48.8,33.4,25.6,92,78,63,30.00,29.71,14,4,14,0.25
2013-12-7,41.4,32.9,28.6,28.2,21.5,13.9,86,64,45,30.31,29.95,17,3,17,0.05
2013-12-8,35.2,28.5,24.3,17.9,15.1,12.0,67,57,45,30.40,30.23,11,2,11,0.00
2013-12-9,37.4,31.4,26.1,30.5,25.0,15.2,86,77,55,30.24,29.70,17,3,17,0.01
2013-12-10,34.7,28.7,18.9,28.8,20.4,9.1,88,71,51,29.82,29.65,11,2,13,0.00
2013-12-11,34.3,27.0,20.3,17.6,10.9,2.0,74,51,36,30.02,29.82,17,4,17,0.00
2013-12-12,30.9,19.2,13.1,12.0,-0.4,-12.0,66,43,21,30.15,29.83,10,3,10,0.00
2013-12-13,28.2,20.5,14.2,6.3,2.7,-4.3,52,45,38,30.22,29.77,19,4,19,0.01
2013-12-14,14.0,10.7,7.7,2.7,-4.3,-11.5,68,51,38,30.40,29.83,7,2,7,0.00
2013-12-15,35.4,22.5,11.1,22.0,13.6,2.7,78,68,54,29.83,29.36,14,2,14,0.00
2013-12-16,32.7,18.7,2.8,18.0,3.9,-6.8,73,53,32,30.03,29.54,13,2,13,0.00
2013-12-17,13.1,5.2,-4.9,3.6,-5.8,-16.1,66,59,53,30.04,29.79,2,0,2,0.00
2013-12-18,35.1,19.0,7.9,17.4,9.5,-1.7,77,66,46,29.88,29.77,4,0,4,0.00
2013-12-19,46.2,30.6,22.1,23.5,19.2,15.3,76,63,38,29.90,29.76,11,1,12,0.13
2013-12-20,41.7,36.4,29.5,33.2,26.9,21.3,84,68,56,29.88,29.70,8,1,10,0.07
2013-12-21,49.6,42.4,37.0,40.0,34.4,29.0,92,74,57,29.72,29.62,10,1,11,0.18
2013-12-22,47.8,37.9,32.2,45.9,35.3,29.0,95,90,82,29.74,29.42,10,1,14,0.02
2013-12-23,46.2,40.2,33.8,41.0,34.9,21.6,92,82,58,29.99,29.73,17,2,17,0.20
2013-12-24,34.7,26.8,17.2,21.8,11.9,1.3,64,53,41,30.14,29.93,17,4,17,0.00
2013-12-25,30.9,16.5,9.3,4.4,-3.4,-7.9,57,41,21,30.36,30.14,19,3,19,0.00
2013-12-26,33.8,25.9,19.6,21.8,13.3,2.9,78,60,41,30.19,29.90,14,3,14,0.00
2013-12-27,34.9,28.4,18.1,20.1,16.1,8.6,78,60,47,30.10,30.01,10,1,10,0.00
2013-12-28,45.9,32.2,24.4,26.6,21.0,16.1,77,64,46,30.01,29.82,15,2,15,0.00
2013-12-29,40.8,33.0,25.9,33.8,26.9,19.9,87,78,59,29.83,29.38,6,0,6,0.57
2013-12-30,35.1,24.6,11.5,31.4,11.6,-2.0,88,59,39,30.03,29.44,15,0,15,0.02
2013-12-31,25.5,17.2,9.5,14.0,3.1,-5.6,72,54,33,30.03,29.81,0,0,0,0.00
2014-1-1,30.2,18.6,11.3,8.3,2.7,-3.6,65,50,33,30.18,30.00,0,0,0,0.00
2014-1-2,17.4,4.0,-2.0,7.4,-7.3,-14.6,65,58,53,30.14,29.71,0,0,0,0.00